Impacts METAR Board
IDs:

KSFO - San Francisco Intl, CA, US

Updated at: 0100 UTC 24 Jun 2018
Potential Impact None Slight Moderate High
Time 23/13Z 23/14Z 23/15Z 23/16Z 23/17Z 23/18Z 23/19Z 23/20Z 23/21Z 23/22Z 23/23Z 24/00Z 24/01Z
Temp60 63 69 70 71 73 85 88 81 80 86 83 78
Dewpt48 50 53 56 57 59 54 53 53 52 52 52 51
Altim29.79 29.80 29.80 29.80 29.80 29.79 29.78 29.77 29.75 29.74 29.73 29.71 29.71
VIS10 10 10 10 10 10 10 10 10 10 10 10 10
CIG-- -- -- -- -- -- -- -- -- -- -- -- --
CoverCLRCLRCLRCLRCLRCLRCLRCLRCLRCLRCLRCLRCLR
FltCatVFRVFRVFRVFRVFRVFRVFRVFRVFRVFRVFRVFRVFR
WX--------------------------
WDir2802700203030290290300290290290290
WSpd4 3 0 4 4 4 12 13 15 17 15 18 20
WGst-- -- -- -- -- -- -- -- -- -- -- -- --
Raw hourly METARs
KSFO 231256Z 28004KT 10SM CLR 16/09 A2979 RMK AO2 SLP088 T01560089
KSFO 231356Z 27003KT 10SM CLR 17/10 A2980 RMK AO2 SLP090 T01720100
KSFO 231456Z 00000KT 10SM CLR 21/12 A2980 RMK AO2 SLP091 T02060117 52005
KSFO 231556Z 02004KT 10SM CLR 21/13 A2980 RMK AO2 SLP092 T02110133
KSFO 231656Z 03004KT 10SM CLR 22/14 A2980 RMK AO2 SLP090 T02170139
KSFO 231756Z 03004KT 10SM CLR 23/15 A2979 RMK AO2 SLP088 T02280150 10228 20150 58003
KSFO 231856Z 29012KT 10SM CLR 29/12 A2978 RMK AO2 SLP085 T02940122
KSFO 231956Z 29013KT 10SM CLR 31/12 A2977 RMK AO2 SLP080 T03110117
KSFO 232056Z 30015KT 10SM CLR 27/12 A2975 RMK AO2 SLP075 T02720117 58014
KSFO 232156Z 29017KT 10SM CLR 27/11 A2974 RMK AO2 SLP072 T02670111
KSFO 232256Z 29015KT 10SM CLR 30/11 A2973 RMK AO2 SLP066 T03000111
KSFO 232356Z 29018KT 10SM CLR 28/11 A2971 RMK AO2 SLP062 T02830111 10311 20228 58013
KSFO 240056Z 29020KT 10SM CLR 26/11 A2971 RMK AO2 SLP059 T02560106



Page loaded:  01:17 UTC  |   06:17 PM Pacific  |   07:17 PM Mountain  |   08:17 PM Central  |   09:17 PM Eastern

 

ADVISORIES

FORECASTS

FORECASTS

OBSERVATIONS

USER TOOLS

ABOUT US